Time;durP1;ratioP1;P1;durP2;ratioP2;P2;SDS_P1;SDS_P2;PMS_P1;PMS_P2;Temp;Humidity;BMP_temperature;BMP_pressure;BME280_temperature;BME280_humidity;BME280_pressure;Samples;Min_cycle;Max_cycle;Signal;HPM_P1;HPM_P2
2022/01/27 00:00:43;;;;;;;;;;;;;;;16.45;58.24;99770.25;3058629;28;20009;-75
2022/01/27 00:02:32;;;;;;;;;;;;;;;16.44;58.28;99773.94;3061066;28;19977;-74
2022/01/27 00:04:11;;;;;;;;;;;;;;;16.42;58.25;99770.56;3063427;28;19933;-75
2022/01/27 00:05:48;;;;;;;;;;;;;;;16.41;58.23;99766.19;3069833;28;20507;-76
2022/01/27 00:07:19;;;;;;;;;;;;;;;16.40;58.30;99768.03;3114648;28;19929;-75
2022/01/27 00:08:56;;;;;;;;;;;;;;;16.39;58.22;99757.50;3106748;28;19936;-76
2022/01/27 00:10:44;;;;;;;;;;;;;;;16.37;58.28;99760.34;3100546;28;19940;-75
2022/01/27 00:12:19;;;;;;;;;;;;;;;16.36;58.33;99760.50;3104812;28;19921;-76
2022/01/27 00:13:57;;;;;;;;;;;;;;;16.35;58.29;99762.31;3107882;28;19984;-76
2022/01/27 00:15:32;;;;;;;;;;;;;;;16.34;58.34;99760.66;3103182;28;19940;-74
2022/01/27 00:17:13;;;;;;;;;;;;;;;16.34;58.32;99759.81;3112357;28;19929;-75
2022/01/27 00:18:45;;;;;;;;;;;;;;;16.33;58.27;99766.19;3102526;28;19931;-74
2022/01/27 00:20:17;;;;;;;;;;;;;;;16.30;58.47;99762.84;3111181;28;19921;-74
2022/01/27 00:21:49;;;;;;;;;;;;;;;16.29;58.40;99777.19;3113828;28;20316;-74
2022/01/27 00:23:21;;;;;;;;;;;;;;;16.28;58.41;99774.69;3119207;28;19925;-75
2022/01/27 00:24:52;;;;;;;;;;;;;;;16.27;58.42;99775.72;3129153;28;19908;-76
2022/01/27 00:26:24;;;;;;;;;;;;;;;16.25;58.43;99778.53;3113087;28;20362;-76
2022/01/27 00:27:57;;;;;;;;;;;;;;;16.23;58.44;99783.19;3111320;28;19920;-74
2022/01/27 00:29:28;;;;;;;;;;;;;;;16.22;58.40;99784.22;3112817;28;19929;-75
2022/01/27 00:30:59;;;;;;;;;;;;;;;16.22;58.51;99786.88;3112225;28;19924;-74
2022/01/27 00:32:31;;;;;;;;;;;;;;;16.21;58.50;99784.34;3112536;28;20531;-75
2022/01/27 00:34:04;;;;;;;;;;;;;;;16.20;58.44;99778.16;3113993;28;19983;-74
2022/01/27 00:35:35;;;;;;;;;;;;;;;16.20;58.41;99780.00;3099831;28;19980;-74
2022/01/27 00:37:07;;;;;;;;;;;;;;;16.20;58.43;99777.34;3108986;28;20422;-76
2022/01/27 00:38:39;;;;;;;;;;;;;;;16.18;58.36;99782.84;3105722;28;19956;-75
2022/01/27 00:40:12;;;;;;;;;;;;;;;16.17;58.46;99778.50;3111262;28;19983;-75
2022/01/27 00:41:43;;;;;;;;;;;;;;;16.16;58.43;99759.91;3113318;28;20011;-74
2022/01/27 00:43:16;;;;;;;;;;;;;;;16.16;58.36;99759.91;3116434;28;20428;-76
2022/01/27 00:44:48;;;;;;;;;;;;;;;16.13;58.46;99758.41;3104617;28;20318;-75
2022/01/27 00:46:20;;;;;;;;;;;;;;;16.13;58.42;99752.19;3100740;28;19991;-74
2022/01/27 00:47:51;;;;;;;;;;;;;;;16.11;58.45;99751.53;3099251;28;19925;-75
2022/01/27 00:49:25;;;;;;;;;;;;;;;16.09;58.43;99743.66;3111017;28;19925;-76
2022/01/27 00:51:00;;;;;;;;;;;;;;;16.09;58.49;99739.13;3113494;28;19925;-74
2022/01/27 00:52:37;;;;;;;;;;;;;;;16.07;58.45;99740.28;3106509;28;20016;-75
2022/01/27 00:54:14;;;;;;;;;;;;;;;16.07;58.52;99735.81;3102413;28;19925;-75
2022/01/27 00:55:45;;;;;;;;;;;;;;;16.05;58.54;99729.78;3107675;28;20342;-75
2022/01/27 00:57:30;;;;;;;;;;;;;;;16.04;58.53;99732.59;3100163;28;19936;-75
2022/01/27 00:59:20;;;;;;;;;;;;;;;16.03;58.54;99733.59;3117497;28;19924;-75
2022/01/27 01:00:56;;;;;;;;;;;;;;;16.00;58.53;99733.91;3114485;28;19983;-74
2022/01/27 01:02:38;;;;;;;;;;;;;;;16.00;58.58;99734.75;3104211;28;19928;-74
2022/01/27 01:04:11;;;;;;;;;;;;;;;15.99;58.63;99737.56;3110504;28;19929;-76
2022/01/27 01:06:02;;;;;;;;;;;;;;;15.98;58.65;99735.91;3113623;28;19928;-76
2022/01/27 01:07:38;;;;;;;;;;;;;;;15.97;58.64;99740.44;3110026;28;19925;-74
2022/01/27 01:14:42;;;;;;;;;;;;;;;15.92;58.74;99747.25;3110842;28;20292;-75
2022/01/27 01:16:19;;;;;;;;;;;;;;;15.92;58.66;99741.91;3110606;28;19978;-75
2022/01/27 01:18:01;;;;;;;;;;;;;;;15.91;58.76;99740.22;3112407;28;19925;-75
2022/01/27 01:19:45;;;;;;;;;;;;;;;15.90;58.77;99738.53;3098409;28;20012;-75
2022/01/27 01:21:33;;;;;;;;;;;;;;;15.87;58.69;99745.03;3097572;28;19921;-75
2022/01/27 01:30:34;;;;;;;;;;;;;;;15.81;58.77;99738.50;3102700;28;19922;-74
2022/01/27 01:32:15;;;;;;;;;;;;;;;15.79;58.78;99743.16;3114053;28;19925;-75
2022/01/27 01:33:56;;;;;;;;;;;;;;;15.78;58.86;99738.81;3093025;28;20392;-74
2022/01/27 01:35:29;;;;;;;;;;;;;;;15.78;58.84;99736.13;3100688;28;20454;-73
2022/01/27 01:37:03;;;;;;;;;;;;;;;15.78;58.80;99737.97;3115315;28;19932;-75
2022/01/27 01:38:36;;;;;;;;;;;;;;;15.77;58.78;99742.50;3099798;28;19929;-74
2022/01/27 01:40:09;;;;;;;;;;;;;;;15.75;58.89;99736.47;3103656;28;19932;-75
2022/01/27 01:41:40;;;;;;;;;;;;;;;15.75;58.81;99735.63;3110694;28;20418;-74
2022/01/27 01:43:12;;;;;;;;;;;;;;;15.74;58.91;99733.94;3100210;28;20353;-75
2022/01/27 01:44:46;;;;;;;;;;;;;;;15.72;58.90;99736.78;3110638;28;19952;-74
2022/01/27 01:46:19;;;;;;;;;;;;;;;15.71;58.85;99727.09;3097285;28;19921;-74
2022/01/27 01:47:51;;;;;;;;;;;;;;;15.69;58.96;99731.75;3100534;28;20394;-75
2022/01/27 01:49:26;;;;;;;;;;;;;;;15.70;58.80;99732.59;3110280;28;20035;-74
2022/01/27 01:50:58;;;;;;;;;;;;;;;15.69;58.86;99726.41;3112968;28;19952;-75
2022/01/27 01:52:30;;;;;;;;;;;;;;;15.68;58.96;99734.53;3098692;28;20036;-74
2022/01/27 01:54:01;;;;;;;;;;;;;;;15.68;58.91;99731.84;3098513;28;19948;-74
2022/01/27 01:55:33;;;;;;;;;;;;;;;15.65;58.88;99739.19;3112714;28;19929;-74
2022/01/27 01:57:05;;;;;;;;;;;;;;;15.65;58.97;99738.34;3116946;28;19936;-74
2022/01/27 01:58:37;;;;;;;;;;;;;;;15.62;58.97;99731.50;3105798;28;20460;-75
2022/01/27 02:00:09;;;;;;;;;;;;;;;15.61;59.11;99732.50;3102209;28;19925;-74
2022/01/27 02:01:42;;;;;;;;;;;;;;;15.61;59.07;99737.84;3102407;28;19929;-74
2022/01/27 02:03:14;;;;;;;;;;;;;;;15.60;58.98;99729.97;3110182;28;19921;-76
2022/01/27 02:04:46;;;;;;;;;;;;;;;15.59;59.11;99739.81;3113984;28;19925;-75
2022/01/27 02:06:23;;;;;;;;;;;;;;;15.59;59.14;99741.66;3100414;28;19968;-74
2022/01/27 02:08:11;;;;;;;;;;;;;;;15.57;59.11;99738.31;3115887;28;20888;-76
2022/01/27 02:10:02;;;;;;;;;;;;;;;15.56;58.97;99732.13;3093592;28;19926;-75
2022/01/27 02:19:19;;;;;;;;;;;;;;;15.49;59.12;99716.84;3112845;28;19991;-75
2022/01/27 02:20:52;;;;;;;;;;;;;;;15.48;59.08;99725.88;3095881;28;19925;-74
2022/01/27 02:22:23;;;;;;;;;;;;;;;15.47;59.09;99719.72;3102860;28;19922;-74
2022/01/27 02:23:55;;;;;;;;;;;;;;;15.46;59.19;99722.53;3110182;28;19925;-73
2022/01/27 02:25:27;;;;;;;;;;;;;;;15.46;59.11;99714.50;3106737;28;20007;-75
2022/01/27 02:26:59;;;;;;;;;;;;;;;15.46;59.20;99709.16;3084629;28;19925;-74
2022/01/27 02:28:31;;;;;;;;;;;;;;;15.44;59.18;99708.50;3106413;28;19921;-74
2022/01/27 02:30:02;;;;;;;;;;;;;;;15.42;59.27;99706.78;3101163;28;20518;-74
2022/01/27 02:31:34;;;;;;;;;;;;;;;15.42;59.26;99704.13;3108730;28;19968;-74
2022/01/27 02:33:05;;;;;;;;;;;;;;;15.39;59.30;99699.09;3100196;28;19929;-74
2022/01/27 02:34:37;;;;;;;;;;;;;;;15.39;59.35;99700.94;3111078;28;20379;-74
2022/01/27 02:36:10;;;;;;;;;;;;;;;15.38;59.27;99697.44;3105515;28;19926;-76
2022/01/27 02:37:41;;;;;;;;;;;;;;;15.37;59.29;99701.06;3113238;28;20523;-74
2022/01/27 02:39:13;;;;;;;;;;;;;;;15.36;59.19;99698.56;3117973;28;20447;-74
2022/01/27 02:40:54;;;;;;;;;;;;;;;15.35;59.23;99705.75;3109505;28;20545;-74
2022/01/27 02:42:27;;;;;;;;;;;;;;;15.34;59.43;99704.06;3094496;28;20126;-76
2022/01/27 02:43:57;;;;;;;;;;;;;;;15.34;59.31;99700.56;3106460;28;20306;-75
2022/01/27 02:45:32;;;;;;;;;;;;;;;15.34;59.19;99708.56;3100732;28;19974;-74
2022/01/27 02:47:04;;;;;;;;;;;;;;;15.31;59.33;99709.72;3116922;28;19936;-74
2022/01/27 02:48:36;;;;;;;;;;;;;;;15.30;59.34;99718.75;3099400;28;19925;-74
2022/01/27 02:50:08;;;;;;;;;;;;;;;15.30;59.33;99712.56;3111093;28;19987;-75
2022/01/27 02:51:41;;;;;;;;;;;;;;;15.30;59.38;99710.72;3101736;28;19933;-75
2022/01/27 02:53:12;;;;;;;;;;;;;;;15.30;59.39;99707.22;3113350;28;19924;-75
2022/01/27 02:54:44;;;;;;;;;;;;;;;15.30;59.39;99702.72;3109924;28;19936;-74
2022/01/27 02:56:16;;;;;;;;;;;;;;;15.30;59.50;99697.38;3120494;28;19964;-74
2022/01/27 02:57:47;;;;;;;;;;;;;;;15.31;59.53;99699.03;3104268;28;20600;-74
2022/01/27 02:59:20;;;;;;;;;;;;;;;15.29;59.60;99695.66;3097809;28;19926;-74
2022/01/27 03:00:51;;;;;;;;;;;;;;;15.29;59.43;99701.00;3107648;28;19929;-74
2022/01/27 03:02:24;;;;;;;;;;;;;;;15.29;59.52;99697.50;3101453;28;20567;-75
2022/01/27 03:03:55;;;;;;;;;;;;;;;15.28;59.50;99690.50;3109962;28;19930;-74
2022/01/27 03:05:26;;;;;;;;;;;;;;;15.28;59.61;99694.00;3111535;28;19937;-74
2022/01/27 03:06:59;;;;;;;;;;;;;;;15.28;59.48;99685.97;3111418;28;19921;-74
2022/01/27 03:08:30;;;;;;;;;;;;;;;15.28;59.52;99690.50;3099348;28;20604;-75
2022/01/27 03:10:02;;;;;;;;;;;;;;;15.28;59.54;99687.81;3115676;28;19929;-74
2022/01/27 03:11:33;;;;;;;;;;;;;;;15.28;59.57;99694.00;3111130;28;20429;-74
2022/01/27 03:13:05;;;;;;;;;;;;;;;15.29;59.42;99684.16;3104621;28;20003;-74
2022/01/27 03:14:37;;;;;;;;;;;;;;;15.28;59.64;99688.66;3111995;28;20470;-74
2022/01/27 03:16:09;;;;;;;;;;;;;;;15.29;59.58;99686.81;3108685;28;19947;-74
2022/01/27 03:17:41;;;;;;;;;;;;;;;15.30;59.42;99688.50;3118030;28;19932;-74
2022/01/27 03:19:12;;;;;;;;;;;;;;;15.28;59.59;99688.66;3115817;28;19920;-74
2022/01/27 03:20:43;;;;;;;;;;;;;;;15.30;59.36;99686.69;3102944;28;19929;-74
2022/01/27 03:22:16;;;;;;;;;;;;;;;15.29;59.46;99687.66;3112696;28;19978;-74
2022/01/27 03:23:48;;;;;;;;;;;;;;;15.29;59.49;99684.97;3120251;28;19959;-74
2022/01/27 03:25:19;;;;;;;;;;;;;;;15.28;59.44;99693.16;3110895;28;20439;-74
2022/01/27 03:26:51;;;;;;;;;;;;;;;15.28;59.43;99694.00;3112212;28;19930;-74
2022/01/27 03:28:27;;;;;;;;;;;;;;;15.27;59.38;99687.00;3097472;28;19922;-75
2022/01/27 03:29:58;;;;;;;;;;;;;;;15.28;59.27;99694.00;3108708;28;19921;-75
2022/01/27 03:31:30;;;;;;;;;;;;;;;15.27;59.51;99689.66;3111413;28;20238;-74
2022/01/27 03:33:01;;;;;;;;;;;;;;;15.27;59.61;99696.84;3108735;28;19925;-74
2022/01/27 03:34:33;;;;;;;;;;;;;;;15.26;59.48;99696.00;3114998;28;20526;-74
2022/01/27 03:36:04;;;;;;;;;;;;;;;15.25;59.55;99697.00;3122470;28;19925;-75
2022/01/27 03:37:37;;;;;;;;;;;;;;;15.24;59.60;99695.31;3101089;28;19933;-75
2022/01/27 03:39:09;;;;;;;;;;;;;;;15.25;59.81;99702.34;3100687;28;19945;-76
2022/01/27 03:40:41;;;;;;;;;;;;;;;15.26;59.37;99701.34;3111178;28;19932;-74
2022/01/27 03:42:12;;;;;;;;;;;;;;;15.25;59.42;99707.69;3097463;28;20985;-77
2022/01/27 03:43:43;;;;;;;;;;;;;;;15.23;59.49;99707.00;3121660;28;19921;-75
2022/01/27 03:45:15;;;;;;;;;;;;;;;15.26;59.50;99701.34;3117734;28;20452;-74
2022/01/27 03:46:47;;;;;;;;;;;;;;;15.25;59.38;99699.66;3098237;28;19928;-75
2022/01/27 03:48:19;;;;;;;;;;;;;;;15.23;59.38;99690.97;3102322;28;20085;-75
2022/01/27 03:49:50;;;;;;;;;;;;;;;15.21;59.59;99692.97;3122358;28;19986;-76
2022/01/27 03:51:22;;;;;;;;;;;;;;;15.21;59.38;99695.63;3102555;28;19929;-74
2022/01/27 03:52:55;;;;;;;;;;;;;;;15.20;59.43;99691.28;3110896;28;20408;-73
2022/01/27 03:54:26;;;;;;;;;;;;;;;15.19;59.52;99690.44;3102169;28;21642;-74
2022/01/27 03:55:58;;;;;;;;;;;;;;;15.20;59.40;99685.94;3115313;28;19921;-74
2022/01/27 03:57:30;;;;;;;;;;;;;;;15.20;59.46;99692.09;3105198;28;20022;-74
2022/01/27 03:59:01;;;;;;;;;;;;;;;15.20;59.35;99691.28;3113063;28;20166;-75
2022/01/27 04:00:33;;;;;;;;;;;;;;;15.19;59.44;99693.09;3116649;28;20473;-74
2022/01/27 04:02:05;;;;;;;;;;;;;;;15.17;59.45;99684.41;3106446;28;19921;-74
2022/01/27 04:03:38;;;;;;;;;;;;;;;15.16;59.52;99693.41;3113411;28;19925;-75
2022/01/27 04:05:11;;;;;;;;;;;;;;;15.16;59.52;99698.78;3100160;28;20036;-76
2022/01/27 04:06:43;;;;;;;;;;;;;;;15.16;59.54;99692.59;3106435;28;19920;-74
2022/01/27 04:08:16;;;;;;;;;;;;;;;15.15;59.51;99693.56;3102383;28;19987;-75
2022/01/27 04:09:47;;;;;;;;;;;;;;;15.15;59.59;99693.56;3107311;28;19925;-74
2022/01/27 04:11:19;;;;;;;;;;;;;;;15.14;59.59;99695.41;3109826;28;20570;-75
2022/01/27 04:12:50;;;;;;;;;;;;;;;15.14;59.47;99695.41;3110148;28;19928;-74
2022/01/27 04:14:22;;;;;;;;;;;;;;;15.13;59.45;99690.22;3104853;28;19925;-74
2022/01/27 04:15:53;;;;;;;;;;;;;;;15.12;59.60;99693.88;3112287;28;19963;-74
2022/01/27 04:17:25;;;;;;;;;;;;;;;15.11;59.50;99700.22;3110657;28;19921;-75
2022/01/27 04:18:57;;;;;;;;;;;;;;;15.10;59.59;99699.41;3113957;28;19932;-74
2022/01/27 04:20:28;;;;;;;;;;;;;;;15.09;59.64;99695.03;3114146;28;19932;-76
2022/01/27 04:22:00;;;;;;;;;;;;;;;15.09;59.55;99696.88;3114601;28;19921;-74
2022/01/27 04:23:33;;;;;;;;;;;;;;;15.10;59.66;99698.53;3102813;28;19932;-74
2022/01/27 04:25:05;;;;;;;;;;;;;;;15.09;59.41;99696.88;3109179;28;20736;-74
2022/01/27 04:26:42;;;;;;;;;;;;;;;15.09;59.49;99691.53;3101501;28;19937;-74
2022/01/27 04:28:19;;;;;;;;;;;;;;;15.08;59.59;99696.03;3110788;28;20665;-75
2022/01/27 04:29:50;;;;;;;;;;;;;;;15.06;59.64;99698.00;3117962;28;19979;-75
2022/01/27 04:31:24;;;;;;;;;;;;;;;15.06;59.51;99700.69;3120174;28;19928;-74
2022/01/27 04:32:58;;;;;;;;;;;;;;;15.06;59.52;99702.53;3107218;28;20476;-74
2022/01/27 04:34:31;;;;;;;;;;;;;;;15.05;59.58;99703.53;3102662;28;19979;-74
2022/01/27 04:36:09;;;;;;;;;;;;;;;15.04;59.65;99702.66;3101339;28;20476;-74
2022/01/27 04:37:49;;;;;;;;;;;;;;;15.03;59.49;99697.50;3112430;28;19951;-74
2022/01/27 04:39:28;;;;;;;;;;;;;;;15.03;59.49;99697.50;3108918;28;20406;-74
2022/01/27 04:41:08;;;;;;;;;;;;;;;15.02;59.51;99698.50;3109247;28;20579;-74
2022/01/27 04:42:50;;;;;;;;;;;;;;;15.01;59.53;99697.63;3112610;28;20550;-73
2022/01/27 04:44:28;;;;;;;;;;;;;;;15.01;59.60;99702.97;3102649;28;19931;-73
2022/01/27 04:46:08;;;;;;;;;;;;;;;14.99;59.65;99696.97;3109856;28;20426;-73
2022/01/27 04:47:45;;;;;;;;;;;;;;;14.98;59.66;99696.09;3116287;28;20004;-73
2022/01/27 04:49:16;;;;;;;;;;;;;;;14.98;59.54;99693.44;3101956;28;19921;-74
2022/01/27 04:50:50;;;;;;;;;;;;;;;14.97;59.67;99697.09;3098716;28;19991;-75
2022/01/27 04:52:22;;;;;;;;;;;;;;;14.97;59.65;99694.44;3110118;28;19979;-76
2022/01/27 04:53:59;;;;;;;;;;;;;;;14.97;59.56;99690.94;3111349;28;19931;-74
2022/01/27 04:55:32;;;;;;;;;;;;;;;14.96;59.53;99698.13;3111421;28;19925;-74
2022/01/27 04:57:05;;;;;;;;;;;;;;;14.95;59.70;99704.44;3101728;28;20599;-74
2022/01/27 04:58:36;;;;;;;;;;;;;;;14.94;59.62;99700.09;3114168;28;19925;-73
2022/01/27 05:00:09;;;;;;;;;;;;;;;14.94;59.59;99699.25;3101342;28;19984;-74
2022/01/27 05:01:45;;;;;;;;;;;;;;;14.92;59.77;99691.38;3110262;28;20647;-74
2022/01/27 05:03:22;;;;;;;;;;;;;;;14.92;59.69;99691.38;3117179;28;20442;-74
2022/01/27 05:04:54;;;;;;;;;;;;;;;14.92;59.63;99685.19;3103412;28;19921;-75
2022/01/27 05:06:25;;;;;;;;;;;;;;;14.92;59.74;99680.69;3104553;28;19922;-74
2022/01/27 05:08:00;;;;;;;;;;;;;;;14.93;59.57;99681.53;3115293;28;19928;-74
2022/01/27 05:09:31;;;;;;;;;;;;;;;14.94;59.59;99689.41;3115772;28;20363;-74
2022/01/27 05:11:09;;;;;;;;;;;;;;;14.95;59.74;99688.41;3113692;28;19924;-74
2022/01/27 05:12:45;;;;;;;;;;;;;;;14.98;59.85;99693.44;3111896;28;19927;-75
2022/01/27 05:14:19;;;;;;;;;;;;;;;15.03;59.95;99692.97;3120962;28;20509;-74
2022/01/27 05:15:51;;;;;;;;;;;;;;;15.13;59.87;99698.25;3112536;28;19921;-73
2022/01/27 05:17:22;;;;;;;;;;;;;;;15.21;59.71;99695.63;3115465;28;19925;-73
2022/01/27 05:18:55;;;;;;;;;;;;;;;15.28;59.78;99699.34;3100776;28;19944;-74
2022/01/27 05:20:26;;;;;;;;;;;;;;;15.35;59.46;99702.22;3104754;28;19956;-73
2022/01/27 05:21:58;;;;;;;;;;;;;;;15.44;59.51;99703.16;3114823;28;19928;-74
2022/01/27 05:23:29;;;;;;;;;;;;;;;15.48;59.52;99699.97;3114361;28;19932;-74
2022/01/27 05:25:01;;;;;;;;;;;;;;;15.57;59.25;99699.06;3112236;28;19920;-74
2022/01/27 05:26:34;;;;;;;;;;;;;;;15.63;59.14;99695.75;3117236;28;19925;-74
2022/01/27 05:28:06;;;;;;;;;;;;;;;15.69;59.12;99696.16;3111874;28;19933;-73
2022/01/27 05:29:37;;;;;;;;;;;;;;;15.74;59.18;99701.84;3101954;28;19925;-74
2022/01/27 05:31:09;;;;;;;;;;;;;;;15.80;59.02;99702.06;3117546;28;19963;-73
2022/01/27 05:32:39;;;;;;;;;;;;;;;15.86;58.94;99703.25;3114798;28;19921;-73
2022/01/27 05:34:11;;;;;;;;;;;;;;;15.91;58.88;99697.41;3100278;28;19961;-74
2022/01/27 05:35:45;;;;;;;;;;;;;;;15.95;58.69;99701.44;3101944;28;19970;-73
2022/01/27 05:37:17;;;;;;;;;;;;;;;16.00;58.65;99697.28;3111606;28;19921;-73
2022/01/27 05:38:49;;;;;;;;;;;;;;;16.05;58.59;99699.50;3122075;28;19925;-75
2022/01/27 05:40:20;;;;;;;;;;;;;;;16.09;58.58;99698.16;3120596;28;20187;-74
2022/01/27 05:41:53;;;;;;;;;;;;;;;16.13;58.63;99704.03;3118062;28;19932;-74
2022/01/27 05:43:24;;;;;;;;;;;;;;;16.16;58.46;99712.59;3106889;28;19925;-75
2022/01/27 05:44:56;;;;;;;;;;;;;;;16.16;58.52;99701.03;3122598;28;19928;-74
2022/01/27 05:46:28;;;;;;;;;;;;;;;16.17;58.54;99706.22;3114695;28;20533;-74
2022/01/27 05:47:59;;;;;;;;;;;;;;;16.20;58.57;99713.09;3108360;28;19960;-73
2022/01/27 05:49:31;;;;;;;;;;;;;;;16.20;58.51;99711.25;3111708;28;19926;-74
2022/01/27 05:51:03;;;;;;;;;;;;;;;16.23;58.42;99713.59;3112956;28;19928;-73
2022/01/27 05:52:34;;;;;;;;;;;;;;;16.24;58.46;99717.97;3123073;28;19995;-73
2022/01/27 05:54:06;;;;;;;;;;;;;;;16.27;58.36;99720.31;3109243;28;20692;-74
2022/01/27 05:55:37;;;;;;;;;;;;;;;16.30;58.31;99717.31;3107924;28;19932;-73
2022/01/27 05:57:10;;;;;;;;;;;;;;;16.31;58.36;99716.31;3104514;28;20504;-73
2022/01/27 05:58:42;;;;;;;;;;;;;;;16.34;58.28;99720.50;3110844;28;19925;-74
2022/01/27 06:00:14;;;;;;;;;;;;;;;16.35;58.19;99719.50;3100548;28;19929;-74
2022/01/27 06:01:45;;;;;;;;;;;;;;;16.35;58.25;99719.50;3112567;28;19921;-74
2022/01/27 06:03:17;;;;;;;;;;;;;;;16.36;58.18;99723.88;3112044;28;19931;-74
2022/01/27 06:04:48;;;;;;;;;;;;;;;16.36;58.22;99721.19;3101109;28;19922;-74
2022/01/27 06:06:20;;;;;;;;;;;;;;;16.38;58.16;99732.59;3095786;28;19925;-73
2022/01/27 06:07:51;;;;;;;;;;;;;;;16.39;58.14;99733.41;3096365;28;20045;-74
2022/01/27 06:09:23;;;;;;;;;;;;;;;16.38;58.25;99731.72;3091773;28;20849;-74
2022/01/27 06:10:54;;;;;;;;;;;;;;;16.39;58.15;99736.09;3104558;28;20562;-74
2022/01/27 06:12:27;;;;;;;;;;;;;;;16.41;58.10;99736.75;3104697;28;19921;-73
2022/01/27 06:13:59;;;;;;;;;;;;;;;16.43;58.14;99740.09;3095146;28;19972;-75
2022/01/27 06:15:30;;;;;;;;;;;;;;;16.43;58.02;99748.13;3093063;28;20394;-74
2022/01/27 06:17:02;;;;;;;;;;;;;;;16.44;58.06;99750.66;3108994;28;19932;-73
2022/01/27 06:18:33;;;;;;;;;;;;;;;16.46;57.97;99755.84;3107194;28;20324;-74
2022/01/27 06:20:06;;;;;;;;;;;;;;;16.44;58.07;99747.16;3120397;28;19983;-73
2022/01/27 06:21:39;;;;;;;;;;;;;;;16.45;58.00;99743.47;3092688;28;19923;-76
2022/01/27 06:23:10;;;;;;;;;;;;;;;16.47;58.01;99752.19;3092213;28;19929;-74
2022/01/27 06:24:42;;;;;;;;;;;;;;;16.46;58.04;99755.84;3097925;28;19936;-74
2022/01/27 06:26:14;;;;;;;;;;;;;;;16.48;57.89;99748.50;3102266;28;19936;-75
2022/01/27 06:27:47;;;;;;;;;;;;;;;16.47;57.92;99754.88;3098834;28;19956;-76
2022/01/27 06:29:18;;;;;;;;;;;;;;;16.47;58.01;99752.19;3094485;28;19933;-79
2022/01/27 06:30:50;;;;;;;;;;;;;;;16.49;58.01;99753.69;3096167;28;19933;-75
2022/01/27 06:32:21;;;;;;;;;;;;;;;16.49;57.86;99748.34;3100934;28;19964;-74
2022/01/27 06:33:53;;;;;;;;;;;;;;;16.51;57.97;99750.84;3106073;28;19921;-76
2022/01/27 06:35:24;;;;;;;;;;;;;;;16.51;57.81;99749.00;3109690;28;19929;-74
2022/01/27 06:36:57;;;;;;;;;;;;;;;16.52;57.91;99744.50;3097881;28;20505;-76
2022/01/27 06:38:28;;;;;;;;;;;;;;;16.51;57.86;99749.00;3101859;28;19929;-76
2022/01/27 06:40:00;;;;;;;;;;;;;;;16.55;57.89;99746.84;3098316;28;19928;-75
2022/01/27 06:41:32;;;;;;;;;;;;;;;16.56;57.88;99753.88;3110627;28;19921;-78
2022/01/27 06:43:05;;;;;;;;;;;;;;;16.56;57.93;99759.22;3104507;28;20006;-73
2022/01/27 06:44:37;;;;;;;;;;;;;;;16.59;57.89;99766.09;3102907;28;20485;-75
2022/01/27 06:46:08;;;;;;;;;;;;;;;16.58;57.80;99767.97;3114687;28;19921;-75
2022/01/27 06:47:40;;;;;;;;;;;;;;;16.58;57.88;99767.97;3087560;28;19936;-79
2022/01/27 06:49:16;;;;;;;;;;;;;;;16.61;57.77;99767.63;3094282;28;20638;-75
2022/01/27 06:50:53;;;;;;;;;;;;;;;16.59;57.80;99774.16;3103256;28;20534;-74
2022/01/27 06:52:27;;;;;;;;;;;;;;;16.62;57.91;99773.81;3088755;28;19925;-73
2022/01/27 06:53:59;;;;;;;;;;;;;;;16.62;57.78;99769.28;3088594;28;20015;-77
2022/01/27 06:55:31;;;;;;;;;;;;;;;16.62;57.90;99771.97;3093008;28;19921;-74
2022/01/27 06:57:03;;;;;;;;;;;;;;;16.62;57.91;99777.31;3090717;28;19940;-75
2022/01/27 06:58:37;;;;;;;;;;;;;;;16.64;57.83;99779.84;3098894;28;19932;-72
2022/01/27 07:00:10;;;;;;;;;;;;;;;16.61;57.86;99772.97;3097207;28;19928;-74
2022/01/27 07:01:41;;;;;;;;;;;;;;;16.61;57.81;99769.47;3103512;28;20074;-75
2022/01/27 07:03:13;;;;;;;;;;;;;;;16.62;57.78;99785.38;3098504;28;19921;-75
2022/01/27 07:04:44;;;;;;;;;;;;;;;16.61;57.87;99781.00;3090302;28;20004;-75
2022/01/27 07:06:17;;;;;;;;;;;;;;;16.62;57.89;99785.38;3089838;28;20598;-74
2022/01/27 07:07:48;;;;;;;;;;;;;;;16.62;57.88;99784.53;3080149;28;19937;-75
2022/01/27 07:09:20;;;;;;;;;;;;;;;16.61;57.79;99789.06;3089602;28;20508;-73
2022/01/27 07:10:52;;;;;;;;;;;;;;;16.61;57.83;99786.38;3090856;28;20061;-75
2022/01/27 07:12:23;;;;;;;;;;;;;;;16.61;57.82;99781.00;3070898;28;19921;-74
2022/01/27 07:13:56;;;;;;;;;;;;;;;16.61;57.85;99777.50;3098063;28;20405;-76
2022/01/27 07:15:30;;;;;;;;;;;;;;;16.59;58.00;99785.69;3094206;28;19955;-74
2022/01/27 07:17:03;;;;;;;;;;;;;;;16.59;57.89;99785.69;3083670;28;19979;-76
2022/01/27 07:18:36;;;;;;;;;;;;;;;16.59;57.86;99783.00;3097360;28;19921;-75
2022/01/27 07:20:09;;;;;;;;;;;;;;;16.60;57.87;99787.34;3084523;28;19991;-76
2022/01/27 07:21:40;;;;;;;;;;;;;;;16.60;58.02;99787.34;3093137;28;20521;-74
2022/01/27 07:23:12;;;;;;;;;;;;;;;16.60;57.98;99790.03;3094681;28;19929;-73
2022/01/27 07:24:43;;;;;;;;;;;;;;;16.61;57.84;99791.72;3091517;28;20325;-76
2022/01/27 07:26:15;;;;;;;;;;;;;;;16.59;58.00;99785.69;3108272;28;19979;-74
2022/01/27 07:27:47;;;;;;;;;;;;;;;16.60;57.87;99773.97;3098785;28;19976;-76
2022/01/27 07:29:20;;;;;;;;;;;;;;;16.61;57.82;99782.88;3089673;28;19984;-76
2022/01/27 07:30:52;;;;;;;;;;;;;;;16.60;57.94;99781.16;3103430;28;19983;-76
2022/01/27 07:32:23;;;;;;;;;;;;;;;16.62;57.92;99787.22;3104019;28;20071;-75
2022/01/27 07:33:55;;;;;;;;;;;;;;;16.62;57.85;99781.84;3078282;28;20537;-76
2022/01/27 07:35:27;;;;;;;;;;;;;;;16.68;57.80;99784.72;3082032;28;19975;-75
2022/01/27 07:37:01;;;;;;;;;;;;;;;16.67;57.80;99788.41;3085060;28;21154;-76
2022/01/27 07:38:32;;;;;;;;;;;;;;;16.65;57.87;99785.03;3102251;28;20140;-75
2022/01/27 07:40:04;;;;;;;;;;;;;;;16.64;58.01;99786.03;3103973;28;19921;-76
2022/01/27 07:41:35;;;;;;;;;;;;;;;16.62;57.69;99787.22;3096314;28;19932;-74
2022/01/27 07:43:09;;;;;;;;;;;;;;;16.60;58.09;99784.69;3092435;28;20021;-74
2022/01/27 07:44:42;;;;;;;;;;;;;;;16.60;58.13;99790.03;3092085;28;19925;-76
2022/01/27 07:46:14;;;;;;;;;;;;;;;16.59;58.01;99800.94;3105009;28;19962;-74
2022/01/27 07:47:46;;;;;;;;;;;;;;;16.58;58.07;99802.78;3093761;28;19928;-73
2022/01/27 07:49:17;;;;;;;;;;;;;;;16.56;58.03;99804.75;3100934;28;20302;-75
2022/01/27 07:50:49;;;;;;;;;;;;;;;16.56;58.14;99810.13;3103108;28;19936;-76
2022/01/27 07:52:21;;;;;;;;;;;;;;;16.57;58.19;99811.78;3079883;28;19926;-75
2022/01/27 07:53:52;;;;;;;;;;;;;;;16.54;58.14;99812.94;3092788;28;20040;-74
2022/01/27 07:55:24;;;;;;;;;;;;;;;16.53;58.21;99819.31;3081358;28;19956;-75
2022/01/27 07:56:55;;;;;;;;;;;;;;;16.52;58.28;99825.69;3088592;28;20206;-76
2022/01/27 07:58:27;;;;;;;;;;;;;;;16.52;58.23;99824.84;3103560;28;19936;-73
2022/01/27 08:00:00;;;;;;;;;;;;;;;16.52;58.25;99822.19;3090559;28;19968;-73
2022/01/27 08:01:31;;;;;;;;;;;;;;;16.52;58.18;99814.13;3104622;28;20425;-75
2022/01/27 08:03:03;;;;;;;;;;;;;;;16.51;58.19;99817.78;3105827;28;19925;-75
2022/01/27 08:04:34;;;;;;;;;;;;;;;16.50;58.24;99813.44;3104690;28;19960;-75
2022/01/27 08:06:06;;;;;;;;;;;;;;;16.49;58.31;99819.78;3106440;28;19976;-75
2022/01/27 08:07:38;;;;;;;;;;;;;;;16.48;58.31;99831.50;3096836;28;19929;-75
2022/01/27 08:09:10;;;;;;;;;;;;;;;16.46;58.30;99826.31;3090413;28;19936;-75
2022/01/27 08:10:41;;;;;;;;;;;;;;;16.46;58.39;99825.47;3108953;28;19921;-75
2022/01/27 08:12:13;;;;;;;;;;;;;;;16.46;58.33;99830.81;3106923;28;19971;-74
2022/01/27 08:13:44;;;;;;;;;;;;;;;16.45;58.38;99829.16;3100135;28;19975;-75
2022/01/27 08:15:19;;;;;;;;;;;;;;;16.44;58.27;99831.00;3089883;28;19929;-75
2022/01/27 08:16:51;;;;;;;;;;;;;;;16.43;58.29;99828.47;3095801;28;19928;-76
2022/01/27 08:18:22;;;;;;;;;;;;;;;16.42;58.37;99826.81;3086924;28;19929;-74
2022/01/27 08:19:54;;;;;;;;;;;;;;;16.40;58.33;99824.28;3097182;28;19929;-74
2022/01/27 08:21:25;;;;;;;;;;;;;;;16.40;58.41;99831.47;3089895;28;20383;-75
2022/01/27 08:22:57;;;;;;;;;;;;;;;16.39;58.45;99829.81;3098350;28;21073;-75
2022/01/27 08:24:29;;;;;;;;;;;;;;;16.39;58.45;99821.78;3101035;28;20026;-75
2022/01/27 08:26:05;;;;;;;;;;;;;;;16.37;58.44;99831.78;3109346;28;19921;-74